Terminal Aerodrome Forecast
Issued by NWS Wilmington, OH

Current Version | Previous Version | Graphics & Text | Print | Product List | Glossary On
Versions: 1 2 3 4 5 6 7 8 9 10 11 12 13 14 15 16
000
FTUS41 KILN 261139
TAFCMH
TAF
KCMH 261139Z 2612/2712 20007KT P6SM SCT035 BKN090
     FM261700 22010KT P6SM BKN035
     FM270100 17004KT P6SM SCT040 BKN250=

USA.gov is the U.S. government's official web portal to all federal, state and local government web resources and services.